Time;durP1;ratioP1;P1;durP2;ratioP2;P2;SDS_P1;SDS_P2;PMS_P1;PMS_P2;Temp;Humidity;BMP_temperature;BMP_pressure;BME280_temperature;BME280_humidity;BME280_pressure;Samples;Min_cycle;Max_cycle;Signal;HPM_P1;HPM_P2
2022/09/10 00:03:17;;;;;;;;;;;;;;;;;;;;;
2022/09/10 00:07:02;;;;;;;;;;;;;;;;;;;;;
2022/09/10 00:10:50;;;;;;;;;;;;;;;;;;;;;
2022/09/10 00:13:45;;;;;;;5.10;0.90;;;;;;;16.25;71.73;98735.40;104397;1291;25426;-84
2022/09/10 00:17:29;;;;;;;;;;;;;;;;;;;;;
2022/09/10 00:20:53;;;;;;;;;;;;;;;;;;;;;
2022/09/10 00:24:24;;;;;;;4.40;0.80;;;;;;;16.22;71.74;98737.09;104209;1293;24377;-83
2022/09/10 00:27:05;;;;;;;4.10;0.80;;;;;;;16.24;71.75;98735.73;103475;1291;24274;-83
2022/09/10 00:29:38;;;;;;;3.40;0.80;;;;;;;16.24;71.77;98736.00;104452;1291;22586;-84
2022/09/10 00:32:05;;;;;;;5.20;0.80;;;;;;;16.25;71.82;98734.35;104276;1291;22640;-84
2022/09/10 00:34:47;;;;;;;2.60;0.70;;;;;;;16.27;71.98;98733.73;104451;1290;24540;-84
2022/09/10 00:37:19;;;;;;;3.40;0.60;;;;;;;16.27;72.00;98738.44;104477;1290;25515;-83
2022/09/10 00:40:14;;;;;;;3.70;0.80;;;;;;;16.31;72.10;98736.80;104460;1290;22690;-83
2022/09/10 00:42:51;;;;;;;6.30;1.00;;;;;;;16.33;71.97;98735.23;104524;1291;25493;-85
2022/09/10 00:45:28;;;;;;;10.70;1.40;;;;;;;16.33;71.96;98734.90;104513;1285;22550;-87
2022/09/10 00:48:15;;;;;;;7.10;1.00;;;;;;;16.32;72.08;98735.77;104992;1285;25563;-83
2022/09/10 00:50:48;;;;;;;5.90;0.90;;;;;;;16.31;71.90;98730.64;105351;1278;23181;-83
2022/09/10 00:53:58;;;;;;;14.80;1.10;;;;;;;16.32;72.08;98730.75;105977;1277;22563;-82
2022/09/10 00:56:37;;;;;;;5.30;0.70;;;;;;;16.33;72.05;98733.17;105925;1277;25305;-82
2022/09/10 00:59:13;;;;;;;7.10;1.00;;;;;;;16.33;72.14;98738.36;105940;1277;22557;-87
2022/09/10 01:01:53;;;;;;;2.80;0.60;;;;;;;16.32;72.17;98733.23;106078;1276;25272;-82
2022/09/10 01:04:32;;;;;;;6.00;0.90;;;;;;;16.30;72.13;98736.63;105930;1277;22537;-83
2022/09/10 01:07:22;;;;;;;4.00;0.70;;;;;;;16.28;72.11;98737.07;105830;1277;24298;-83
2022/09/10 01:09:55;;;;;;;6.40;0.70;;;;;;;16.27;72.16;98736.32;105600;1277;25213;-84
2022/09/10 01:13:12;;;;;;;2.10;0.50;;;;;;;16.24;72.12;98739.50;105755;1277;25237;-83
2022/09/10 01:16:19;;;;;;;4.20;0.60;;;;;;;16.19;72.23;98741.40;105211;1285;22542;-85
2022/09/10 01:19:42;;;;;;;5.90;0.60;;;;;;;16.21;72.41;98738.12;104444;1291;23965;-83
2022/09/10 01:23:36;;;;;;;2.20;0.60;;;;;;;16.19;72.39;98735.08;103887;1300;23045;-82
2022/09/10 01:26:37;;;;;;;6.80;1.10;;;;;;;16.13;72.25;98733.23;104039;1300;22588;-83
2022/09/10 01:29:25;;;;;;;5.40;0.90;;;;;;;16.10;72.44;98731.52;104046;1300;22579;-81
2022/09/10 01:32:16;;;;;;;7.60;1.10;;;;;;;16.11;72.58;98721.23;103989;1300;22598;-89
2022/09/10 01:35:23;;;;;;;4.50;0.80;;;;;;;16.11;72.60;98719.55;104023;1300;22557;-84
2022/09/10 01:37:55;;;;;;;4.50;0.90;;;;;;;16.15;72.65;98718.08;103969;1300;25409;-83
2022/09/10 01:40:28;;;;;;;4.10;0.70;;;;;;;16.18;72.61;98711.46;103595;1300;22549;-86
2022/09/10 01:43:11;;;;;;;7.30;1.10;;;;;;;16.20;72.65;98707.73;103942;1300;22592;-84
2022/09/10 01:46:20;;;;;;;5.40;1.00;;;;;;;16.19;72.61;98702.20;104298;1291;25241;-81
2022/09/10 01:49:02;;;;;;;7.20;1.20;;;;;;;16.16;72.53;98697.34;104444;1290;22635;-83
2022/09/10 01:52:14;;;;;;;4.10;0.90;;;;;;;16.13;72.63;98692.45;104430;1291;22649;-84
2022/09/10 01:55:09;;;;;;;3.70;0.90;;;;;;;16.09;72.71;98689.05;104749;1285;22557;-83
2022/09/10 01:58:05;;;;;;;4.20;0.80;;;;;;;16.07;72.76;98688.92;105195;1277;25235;-83
2022/09/10 02:01:02;;;;;;;4.60;0.80;;;;;;;16.05;72.79;98686.77;105928;1277;22754;-84
2022/09/10 02:03:44;;;;;;;3.90;1.00;;;;;;;16.05;72.91;98689.42;106001;1276;22549;-83
2022/09/10 02:06:22;;;;;;;3.00;0.80;;;;;;;16.04;72.95;98682.52;105993;1276;22540;-83
2022/09/10 02:08:59;;;;;;;5.70;1.10;;;;;;;16.04;73.00;98679.68;105909;1279;24203;-84
2022/09/10 02:11:55;;;;;;;2.40;0.70;;;;;;;16.03;72.95;98680.70;105821;1276;22542;-82
2022/09/10 02:14:57;;;;;;;6.00;0.90;;;;;;;16.02;72.97;98677.92;105777;1277;25542;-87
2022/09/10 02:18:00;;;;;;;4.80;0.90;;;;;;;16.03;73.05;98675.30;105773;1277;24402;-83
2022/09/10 02:20:32;;;;;;;2.30;0.50;;;;;;;16.05;73.12;98675.58;105970;1277;25307;-83
2022/09/10 02:23:12;;;;;;;3.50;0.80;;;;;;;16.07;73.05;98673.27;105954;1277;22556;-83
2022/09/10 02:25:47;;;;;;;3.30;0.60;;;;;;;16.10;73.06;98670.84;105974;1277;22986;-84
2022/09/10 02:28:29;;;;;;;4.30;0.50;;;;;;;16.11;73.14;98668.06;105923;1277;23151;-84
2022/09/10 02:31:02;;;;;;;3.10;0.60;;;;;;;16.10;73.09;98666.30;105929;1277;22552;-83
2022/09/10 02:33:43;;;;;;;3.80;0.80;;;;;;;16.07;73.07;98662.50;106023;1276;22626;-84
2022/09/10 02:36:30;;;;;;;4.70;0.90;;;;;;;16.04;73.03;98663.86;105857;1277;24231;-82
2022/09/10 02:39:04;;;;;;;1.30;0.60;;;;;;;16.02;73.17;98658.67;105929;1277;22544;-84
2022/09/10 02:41:46;;;;;;;3.20;0.70;;;;;;;16.01;73.23;98657.59;105797;1277;24213;-82
2022/09/10 02:44:18;;;;;;;3.80;0.60;;;;;;;16.02;73.27;98655.27;106048;1277;22541;-86
2022/09/10 02:47:22;;;;;;;4.00;0.60;;;;;;;16.04;73.32;98653.96;105865;1277;24281;-86
2022/09/10 02:49:59;;;;;;;4.70;0.70;;;;;;;16.07;73.32;98648.45;105904;1277;22530;-85
2022/09/10 02:52:48;;;;;;;;;;;;;;;;;;;;;
2022/09/10 02:55:27;;;;;;;3.40;0.80;;;;;;;16.07;73.31;98648.63;105986;1277;25415;-83
2022/09/10 02:58:36;;;;;;;3.60;0.70;;;;;;;16.06;73.34;98651.14;105825;1277;25434;-83
2022/09/10 03:01:24;;;;;;;3.30;0.80;;;;;;;16.04;73.35;98656.16;105708;1277;25306;-83
2022/09/10 03:04:07;;;;;;;4.40;0.70;;;;;;;16.05;73.49;98651.71;105779;1277;25283;-82
2022/09/10 03:06:48;;;;;;;2.60;0.60;;;;;;;16.09;73.44;98650.11;105907;1277;25380;-82
2022/09/10 03:09:27;;;;;;;2.30;0.70;;;;;;;16.08;73.42;98648.52;105951;1277;24298;-85
2022/09/10 03:12:04;;;;;;;2.40;0.60;;;;;;;16.05;73.40;98646.02;106018;1277;22646;-86
2022/09/10 03:14:40;;;;;;;2.90;0.80;;;;;;;15.98;73.36;98647.62;105910;1277;22559;-82
2022/09/10 03:17:15;;;;;;;3.10;0.80;;;;;;;15.98;73.50;98647.59;105916;1277;25454;-87
2022/09/10 03:19:47;;;;;;;2.30;0.70;;;;;;;15.97;73.47;98647.52;105837;1277;24458;-82
2022/09/10 03:23:12;;;;;;;2.90;0.80;;;;;;;15.98;73.58;98650.17;105954;1277;24049;-83
2022/09/10 03:25:48;;;;;;;6.80;0.70;;;;;;;15.99;73.73;98647.89;105720;1277;25286;-83
2022/09/10 03:28:40;;;;;;;;;;;;;;;;;;;;;
2022/09/10 03:31:27;;;;;;;3.00;0.70;;;;;;;16.08;73.70;98650.24;105972;1277;22490;-83
2022/09/10 03:34:11;;;;;;;4.20;0.90;;;;;;;16.08;73.63;98654.83;105848;1277;25310;-82
2022/09/10 03:37:24;;;;;;;4.90;1.00;;;;;;;16.05;73.69;98651.58;106004;1277;22566;-83
2022/09/10 03:40:21;;;;;;;2.70;0.80;;;;;;;16.04;73.64;98651.30;106066;1277;25225;-81
2022/09/10 03:43:15;;;;;;;4.70;0.90;;;;;;;16.02;73.67;98650.63;105806;1277;24357;-84
2022/09/10 03:46:21;;;;;;;;;;;;;;;;;;;;;
2022/09/10 03:50:22;;;;;;;3.40;0.90;;;;;;;15.93;73.76;98648.48;106063;1277;25430;-84
2022/09/10 03:53:36;;;;;;;;;;;;;;;;;;;;;
2022/09/10 03:56:15;;;;;;;4.00;0.90;;;;;;;15.89;73.74;98649.06;105937;1277;25232;-82
2022/09/10 03:58:59;;;;;;;2.70;0.70;;;;;;;15.81;73.57;98652.86;105921;1277;22541;-85
2022/09/10 04:01:44;;;;;;;5.90;0.80;;;;;;;15.73;73.61;98651.60;105819;1277;22576;-84
2022/09/10 04:04:37;;;;;;;2.70;0.80;;;;;;;15.66;73.61;98651.86;106058;1277;22566;-83
2022/09/10 04:07:40;;;;;;;3.10;0.60;;;;;;;15.63;73.65;98656.31;105974;1277;25478;-83
2022/09/10 04:11:46;;;;;;;3.70;0.80;;;;;;;15.57;73.73;98658.64;106045;1277;22629;-84
2022/09/10 04:14:26;;;;;;;;;;;;;;;;;;;;;
2022/09/10 04:18:10;;;;;;;3.90;0.80;;;;;;;15.45;73.73;98661.84;105908;1277;22564;-88
2022/09/10 04:21:04;;;;;;;3.50;0.80;;;;;;;15.43;73.81;98660.98;105990;1277;22615;-85
2022/09/10 04:24:34;;;;;;;;;;;;;;;;;;;;;
2022/09/10 04:28:11;;;;;;;;;;;;;;;;;;;;;
2022/09/10 04:31:23;;;;;;;5.70;0.80;;;;;;;15.34;73.88;98662.05;104726;1290;24309;-83
2022/09/10 04:34:31;;;;;;;;;;;;;;;;;;;;;
2022/09/10 04:37:44;;;;;;;;;;;;;;;;;;;;;
2022/09/10 04:41:25;;;;;;;4.90;0.80;;;;;;;15.32;74.09;98656.10;104881;1290;25380;-83
2022/09/10 04:44:29;;;;;;;;;;;;;;;;;;;;;
2022/09/10 04:47:33;;;;;;;;;;;;;;;;;;;;;
2022/09/10 04:50:48;;;;;;;4.60;1.00;;;;;;;15.24;74.09;98656.21;104873;1290;22560;-83
2022/09/10 04:54:00;;;;;;;;;;;;;;;;;;;;;
2022/09/10 04:56:56;;;;;;;3.10;0.90;;;;;;;15.27;74.23;98657.89;104778;1290;24317;-83
2022/09/10 04:59:55;;;;;;;7.20;1.00;;;;;;;15.26;74.01;98662.11;104792;1290;25399;-83
2022/09/10 05:03:12;;;;;;;3.90;0.90;;;;;;;15.25;74.22;98669.23;104892;1290;22713;-83
2022/09/10 05:06:14;;;;;;;5.10;1.30;;;;;;;15.26;74.25;98671.02;104906;1290;22115;-86
2022/09/10 05:09:08;;;;;;;6.10;1.10;;;;;;;15.26;74.08;98670.83;105882;1277;25304;-84
2022/09/10 05:12:13;;;;;;;3.40;1.00;;;;;;;15.26;74.22;98670.86;105910;1277;22849;-83
2022/09/10 05:14:50;;;;;;;4.40;1.10;;;;;;;15.29;74.12;98664.69;106058;1277;25353;-82
2022/09/10 05:17:25;;;;;;;3.50;0.90;;;;;;;15.34;74.13;98663.45;105855;1277;24152;-83
2022/09/10 05:20:01;;;;;;;5.60;1.10;;;;;;;15.52;74.11;98665.08;105797;1277;24373;-84
2022/09/10 05:22:40;;;;;;;5.20;1.10;;;;;;;15.72;74.09;98668.56;105928;1277;22665;-88
2022/09/10 05:25:18;;;;;;;4.40;1.10;;;;;;;15.91;74.18;98662.80;105877;1276;24401;-85
2022/09/10 05:27:58;;;;;;;4.10;1.30;;;;;;;15.99;73.97;98665.52;105871;1279;22781;-83
2022/09/10 05:30:43;;;;;;;5.10;1.20;;;;;;;15.89;73.80;98671.29;105922;1279;22644;-83
2022/09/10 05:33:30;;;;;;;3.10;1.20;;;;;;;15.82;73.97;98671.48;105786;1280;24127;-84
2022/09/10 05:36:08;;;;;;;4.40;1.20;;;;;;;15.77;74.01;98671.03;105759;1280;22633;-85
2022/09/10 05:38:51;;;;;;;3.00;0.80;;;;;;;15.73;74.07;98671.10;105818;1280;22609;-85
2022/09/10 05:41:27;;;;;;;4.60;1.00;;;;;;;15.72;73.93;98670.48;105730;1277;22555;-83
2022/09/10 05:44:04;;;;;;;6.00;1.80;;;;;;;15.77;74.12;98672.11;105914;1277;23367;-82
2022/09/10 05:46:37;;;;;;;7.20;1.10;;;;;;;15.81;74.18;98670.00;105909;1277;25569;-83
2022/09/10 05:49:26;;;;;;;7.80;1.20;;;;;;;15.93;74.11;98668.60;105857;1277;22760;-83
2022/09/10 05:51:56;;;;;;;6.10;1.30;;;;;;;16.07;74.12;98665.50;105824;1280;22561;-86
2022/09/10 05:54:29;;;;;;;7.90;1.80;;;;;;;16.23;74.00;98667.17;105959;1279;25486;-83
2022/09/10 05:57:17;;;;;;;;;;;;;;;;;;;;;
2022/09/10 05:59:54;;;;;;;6.10;1.30;;;;;;;16.52;73.87;98666.36;105851;1277;24428;-84
2022/09/10 06:02:34;;;;;;;4.90;1.20;;;;;;;16.69;74.14;98667.44;105949;1277;25333;-83
2022/09/10 06:05:06;;;;;;;5.50;1.30;;;;;;;16.89;73.90;98665.41;105739;1277;24259;-83
2022/09/10 06:07:51;;;;;;;6.00;1.00;;;;;;;17.03;73.81;98664.27;105903;1277;22759;-84
2022/09/10 06:10:27;;;;;;;4.80;1.00;;;;;;;17.22;73.93;98667.53;105854;1277;25371;-82
2022/09/10 06:13:06;;;;;;;4.60;1.10;;;;;;;17.39;73.78;98666.95;105858;1277;25300;-84
2022/09/10 06:15:45;;;;;;;4.00;1.00;;;;;;;17.50;73.52;98664.64;105931;1277;22555;-83
2022/09/10 06:18:30;;;;;;;6.60;1.00;;;;;;;17.54;73.41;98667.13;105945;1277;25656;-84
2022/09/10 06:21:34;;;;;;;5.00;1.20;;;;;;;17.52;73.19;98663.52;105959;1277;23914;-83
2022/09/10 06:24:18;;;;;;;4.50;1.30;;;;;;;17.52;73.29;98664.41;106026;1277;25552;-83
2022/09/10 06:26:52;;;;;;;4.30;0.90;;;;;;;17.66;73.64;98663.88;105864;1277;24297;-85
2022/09/10 06:29:35;;;;;;;4.40;1.20;;;;;;;17.82;73.50;98660.58;105903;1277;23771;-85
2022/09/10 06:32:11;;;;;;;8.70;1.20;;;;;;;17.95;73.29;98662.17;105928;1277;25285;-84
2022/09/10 06:34:41;;;;;;;4.60;1.30;;;;;;;18.02;73.30;98661.36;105887;1277;22618;-85
2022/09/10 06:37:18;;;;;;;3.10;1.00;;;;;;;18.07;73.47;98660.52;105828;1280;22692;-83
2022/09/10 06:40:00;;;;;;;4.40;1.00;;;;;;;18.15;73.13;98664.58;105895;1279;22554;-84
2022/09/10 06:42:36;;;;;;;5.00;1.10;;;;;;;18.15;72.80;98663.65;105952;1277;22585;-86
2022/09/10 06:45:20;;;;;;;5.20;0.90;;;;;;;18.20;72.93;98663.57;105879;1277;22734;-83
2022/09/10 06:48:20;;;;;;;4.30;1.10;;;;;;;18.31;72.97;98658.10;105958;1277;25356;-82
2022/09/10 06:51:19;;;;;;;2.80;0.80;;;;;;;18.46;73.11;98655.12;105822;1277;24400;-83
2022/09/10 06:54:07;;;;;;;6.10;1.10;;;;;;;18.66;72.75;98657.27;105978;1277;25399;-83
2022/09/10 06:56:45;;;;;;;5.10;0.90;;;;;;;18.63;72.89;98656.32;105988;1276;22553;-81
2022/09/10 06:59:21;;;;;;;3.60;1.00;;;;;;;18.55;72.82;98656.48;105952;1275;22544;-82
2022/09/10 07:02:05;;;;;;;3.00;0.80;;;;;;;18.56;72.92;98654.70;106132;1277;24368;-81
2022/09/10 07:04:40;;;;;;;4.90;0.90;;;;;;;18.70;72.69;98656.64;106195;1279;24752;-83
2022/09/10 07:07:15;;;;;;;3.00;0.80;;;;;;;18.80;72.52;98660.57;105892;1277;22563;-82
2022/09/10 07:09:45;;;;;;;3.30;1.00;;;;;;;18.89;72.60;98657.37;105860;1278;23901;-82
2022/09/10 07:12:20;;;;;;;4.40;1.10;;;;;;;18.99;72.52;98660.33;106128;1277;24206;-81
2022/09/10 07:14:59;;;;;;;5.60;1.00;;;;;;;19.11;72.70;98659.50;106398;1277;25308;-83
2022/09/10 07:17:51;;;;;;;3.90;0.60;;;;;;;19.27;72.69;98664.72;105951;1277;22730;-82
2022/09/10 07:20:40;;;;;;;2.90;0.70;;;;;;;19.46;72.23;98663.98;106079;1277;22606;-82
2022/09/10 07:23:12;;;;;;;3.70;0.70;;;;;;;19.47;71.68;98666.95;106013;1277;24239;-82
2022/09/10 07:26:02;;;;;;;2.50;0.60;;;;;;;19.52;71.99;98671.04;105955;1277;26470;-86
2022/09/10 07:28:43;;;;;;;2.40;0.50;;;;;;;19.54;71.43;98671.58;105858;1277;25300;-83
2022/09/10 07:31:26;;;;;;;5.50;1.00;;;;;;;19.44;71.21;98678.67;105991;1277;25281;-82
2022/09/10 07:34:07;;;;;;;4.10;0.70;;;;;;;19.44;71.53;98676.74;105935;1277;24259;-83
2022/09/10 07:36:49;;;;;;;3.20;0.70;;;;;;;19.53;71.43;98677.00;105832;1277;22698;-84
2022/09/10 07:39:24;;;;;;;3.50;0.80;;;;;;;19.57;71.55;98677.59;105924;1277;24223;-86
2022/09/10 07:42:19;;;;;;;4.20;0.80;;;;;;;19.49;71.52;98679.15;105843;1277;22873;-83
2022/09/10 07:45:14;;;;;;;;;;;;;;;;;;;;;
2022/09/10 07:47:49;;;;;;;3.60;0.70;;;;;;;19.32;71.09;98683.31;105723;1277;22624;-82
2022/09/10 07:50:19;;;;;;;5.40;0.50;;;;;;;19.49;71.39;98680.94;105549;1277;22591;-82
2022/09/10 07:52:56;;;;;;;3.20;0.60;;;;;;;19.67;71.32;98675.36;105713;1279;25581;-83
2022/09/10 07:55:38;;;;;;;4.00;0.40;;;;;;;19.85;71.51;98676.81;105663;1279;22537;-83
2022/09/10 07:58:18;;;;;;;3.20;0.70;;;;;;;20.04;70.99;98677.84;105648;1277;23059;-85
2022/09/10 08:00:46;;;;;;;3.70;0.80;;;;;;;19.95;70.64;98678.25;105702;1277;24094;-83
2022/09/10 08:03:24;;;;;;;4.40;0.80;;;;;;;19.76;70.55;98682.09;105853;1277;25531;-81
2022/09/10 08:05:52;;;;;;;2.20;0.40;;;;;;;19.64;70.82;98688.41;105708;1276;25229;-84
2022/09/10 08:08:28;;;;;;;4.70;0.60;;;;;;;19.61;70.78;98692.63;105806;1277;22556;-83
2022/09/10 08:11:17;;;;;;;5.40;0.80;;;;;;;19.57;71.03;98694.94;105746;1279;24356;-82
2022/09/10 08:13:49;;;;;;;2.30;0.60;;;;;;;19.59;71.04;98697.00;105852;1277;22639;-81
2022/09/10 08:16:22;;;;;;;2.30;0.40;;;;;;;19.57;71.15;98699.06;105576;1280;22535;-83
2022/09/10 08:18:51;;;;;;;3.30;0.60;;;;;;;19.53;70.43;98700.35;105689;1277;22537;-83
2022/09/10 08:21:24;;;;;;;2.10;0.50;;;;;;;19.48;70.74;98702.75;105791;1277;22626;-83
2022/09/10 08:24:04;;;;;;;3.10;0.60;;;;;;;19.47;70.81;98701.88;105875;1277;22554;-86
2022/09/10 08:27:24;;;;;;;3.50;0.70;;;;;;;19.62;71.22;98700.17;105689;1279;23878;-82
2022/09/10 08:30:11;;;;;;;;;;;;;;;;;;;;;
2022/09/10 08:32:55;;;;;;;2.30;0.60;;;;;;;20.04;70.20;98698.31;105565;1279;24198;-86
2022/09/10 08:35:27;;;;;;;2.20;0.60;;;;;;;19.96;70.14;98693.08;105715;1279;24787;-84
2022/09/10 08:38:38;;;;;;;2.40;0.60;;;;;;;20.22;70.73;98694.36;105578;1279;22615;-82
2022/09/10 08:42:27;;;;;;;3.40;0.60;;;;;;;20.35;70.37;98690.33;105510;1279;25441;-83
2022/09/10 08:45:40;;;;;;;5.10;0.60;;;;;;;20.45;69.94;98689.41;105723;1278;23279;-83
2022/09/10 08:48:29;;;;;;;4.30;0.80;;;;;;;20.28;69.28;98693.66;105820;1278;22557;-82
2022/09/10 08:51:02;;;;;;;5.60;0.70;;;;;;;20.14;69.93;98700.75;105664;1279;24313;-83
2022/09/10 08:53:54;;;;;;;3.60;0.90;;;;;;;20.25;70.21;98697.75;105775;1277;22547;-82
2022/09/10 08:56:33;;;;;;;4.20;0.70;;;;;;;20.53;69.86;98693.09;105838;1277;22720;-82
2022/09/10 08:59:38;;;;;;;4.60;0.70;;;;;;;20.63;69.40;98697.07;105844;1278;22481;-85
2022/09/10 09:02:39;;;;;;;4.80;0.60;;;;;;;20.71;69.33;98696.48;105640;1277;25338;-83
2022/09/10 09:05:33;;;;;;;2.40;0.50;;;;;;;20.93;68.97;98690.45;105947;1277;24143;-84
2022/09/10 09:08:07;;;;;;;5.20;0.50;;;;;;;21.18;69.18;98690.64;105861;1277;22536;-83
2022/09/10 09:10:49;;;;;;;3.50;0.50;;;;;;;21.32;68.64;98695.33;105749;1277;22727;-82
2022/09/10 09:13:35;;;;;;;4.40;0.60;;;;;;;21.28;68.64;98689.92;105691;1277;22541;-82
2022/09/10 09:16:26;;;;;;;2.90;0.50;;;;;;;21.40;68.69;98687.39;105738;1277;22525;-82
2022/09/10 09:19:27;;;;;;;4.90;0.80;;;;;;;21.54;68.70;98685.11;105686;1277;22590;-83
2022/09/10 09:22:18;;;;;;;3.60;0.70;;;;;;;21.72;69.00;98677.64;105740;1277;24186;-81
2022/09/10 09:25:02;;;;;;;6.50;0.60;;;;;;;21.84;68.73;98674.47;105914;1277;22561;-82
2022/09/10 09:27:41;;;;;;;4.70;0.80;;;;;;;21.98;68.59;98680.02;105763;1277;25259;-81
2022/09/10 09:30:52;;;;;;;2.30;0.50;;;;;;;22.15;68.62;98676.66;106109;1277;24215;-84
2022/09/10 09:33:30;;;;;;;4.60;0.90;;;;;;;21.87;67.75;98679.52;105871;1277;22701;-82
2022/09/10 09:36:18;;;;;;;6.50;1.00;;;;;;;21.69;68.12;98675.64;105740;1278;24337;-84
2022/09/10 09:38:47;;;;;;;4.20;0.60;;;;;;;21.73;68.39;98675.73;105978;1277;23908;-82
2022/09/10 09:41:45;;;;;;;4.00;0.70;;;;;;;21.93;68.30;98673.73;105900;1278;22653;-84
2022/09/10 09:44:37;;;;;;;3.40;0.60;;;;;;;21.92;67.25;98680.23;105851;1277;23033;-82
2022/09/10 09:47:11;;;;;;;5.10;0.70;;;;;;;21.56;67.40;98675.05;105770;1277;25673;-84
2022/09/10 09:49:45;;;;;;;3.40;0.50;;;;;;;21.74;68.19;98665.82;105796;1278;25481;-82
2022/09/10 09:52:32;;;;;;;4.50;0.60;;;;;;;21.95;67.97;98664.48;105694;1277;23780;-81
2022/09/10 09:55:10;;;;;;;3.40;0.60;;;;;;;21.84;67.75;98663.40;106023;1277;22565;-83
2022/09/10 09:57:42;;;;;;;2.60;0.80;;;;;;;21.90;67.88;98659.10;106084;1277;23065;-82
2022/09/10 10:00:36;;;;;;;4.00;0.70;;;;;;;21.91;67.27;98653.85;106156;1277;25569;-82
2022/09/10 10:03:15;;;;;;;4.60;0.60;;;;;;;22.15;67.22;98649.77;106271;1278;22959;-83
2022/09/10 10:05:50;;;;;;;4.20;0.70;;;;;;;22.16;66.91;98646.73;105796;1278;22677;-83
2022/09/10 10:08:43;;;;;;;2.30;0.40;;;;;;;22.11;67.50;98644.83;106104;1277;25352;-85
2022/09/10 10:11:21;;;;;;;4.80;0.60;;;;;;;21.77;66.10;98649.00;105820;1278;25274;-84
2022/09/10 10:14:22;;;;;;;3.20;0.60;;;;;;;21.34;66.76;98646.64;105701;1277;25249;-82
2022/09/10 10:16:59;;;;;;;4.50;0.60;;;;;;;21.02;66.81;98646.97;105823;1278;25238;-83
2022/09/10 10:20:00;;;;;;;5.70;0.80;;;;;;;20.80;67.02;98649.46;105838;1277;22703;-83
2022/09/10 10:22:31;;;;;;;4.40;0.80;;;;;;;20.73;67.32;98651.35;105884;1277;25483;-83
2022/09/10 10:25:05;;;;;;;4.40;0.80;;;;;;;20.97;67.40;98649.41;105777;1280;23919;-85
2022/09/10 10:27:53;;;;;;;4.40;0.60;;;;;;;21.29;67.58;98645.07;105799;1278;22563;-82
2022/09/10 10:30:40;;;;;;;5.10;0.70;;;;;;;21.68;66.64;98645.93;105897;1278;24234;-82
2022/09/10 10:33:21;;;;;;;4.70;0.60;;;;;;;21.67;65.97;98641.70;105598;1281;22565;-83
2022/09/10 10:36:02;;;;;;;5.10;0.80;;;;;;;21.61;66.60;98643.86;106003;1277;22578;-82
2022/09/10 10:38:46;;;;;;;5.40;0.60;;;;;;;21.89;66.59;98642.56;105874;1277;22559;-86
2022/09/10 10:42:12;;;;;;;5.60;0.80;;;;;;;22.01;66.43;98639.60;106040;1277;25237;-82
2022/09/10 10:45:26;;;;;;;3.40;0.80;;;;;;;21.74;66.02;98635.84;105683;1283;23012;-84
2022/09/10 10:48:25;;;;;;;4.90;0.70;;;;;;;21.35;66.04;98634.66;105539;1284;22685;-82
2022/09/10 10:51:43;;;;;;;2.60;0.50;;;;;;;20.98;65.95;98636.64;105285;1283;26551;-85
2022/09/10 10:54:46;;;;;;;3.80;0.60;;;;;;;20.67;66.17;98636.64;104571;1294;25532;-82
2022/09/10 10:58:06;;;;;;;4.30;0.70;;;;;;;20.48;66.06;98634.20;104568;1294;24387;-82
2022/09/10 11:00:45;;;;;;;2.90;0.60;;;;;;;20.20;66.15;98637.60;104058;1300;22569;-83
2022/09/10 11:04:06;;;;;;;2.90;0.60;;;;;;;20.13;66.47;98635.19;103897;1300;24294;-82
2022/09/10 11:07:18;;;;;;;3.90;0.70;;;;;;;20.09;66.49;98633.05;103984;1299;22811;-82
2022/09/10 11:10:14;;;;;;;4.60;1.10;;;;;;;20.10;66.75;98632.36;104143;1300;25239;-84
2022/09/10 11:13:11;;;;;;;3.90;0.80;;;;;;;20.11;66.75;98633.89;103997;1300;23590;-82
2022/09/10 11:16:08;;;;;;;4.10;0.70;;;;;;;20.10;66.70;98629.83;103925;1300;22611;-84
2022/09/10 11:18:45;;;;;;;3.40;0.80;;;;;;;20.03;66.43;98628.69;104021;1293;25270;-83
2022/09/10 11:21:57;;;;;;;3.90;0.60;;;;;;;19.94;66.38;98627.91;104203;1294;22687;-82
2022/09/10 11:24:52;;;;;;;4.10;0.70;;;;;;;19.86;66.24;98635.36;104265;1290;22630;-84
2022/09/10 11:27:50;;;;;;;3.00;0.70;;;;;;;19.81;66.18;98634.58;105037;1284;22624;-84
2022/09/10 11:30:32;;;;;;;3.20;0.60;;;;;;;19.77;66.35;98637.30;105398;1284;24329;-82
2022/09/10 11:33:16;;;;;;;2.50;0.70;;;;;;;19.79;66.53;98640.76;105227;1285;25489;-83
2022/09/10 11:36:12;;;;;;;2.50;0.60;;;;;;;19.76;66.18;98651.17;105152;1278;25262;-83
2022/09/10 11:39:21;;;;;;;5.90;1.10;;;;;;;19.56;65.84;98662.87;105943;1278;22672;-85
2022/09/10 11:42:34;;;;;;;10.80;1.60;;;;;;;19.11;65.89;98667.31;106045;1274;25348;-84
2022/09/10 11:45:19;;;;;;;8.00;1.70;;;;;;;18.64;66.71;98652.58;105964;1278;22573;-86
2022/09/10 11:48:46;;;;;;;11.60;1.70;;;;;;;18.51;66.98;98639.94;106214;1277;25352;-83
2022/09/10 11:51:41;;;;;;;5.70;1.10;;;;;;;18.52;67.52;98634.63;105516;1285;25518;-85
2022/09/10 11:54:30;;;;;;;8.80;1.30;;;;;;;18.62;67.68;98635.15;105326;1284;23289;-85
2022/09/10 11:57:12;;;;;;;4.30;0.90;;;;;;;18.51;67.01;98635.64;105350;1284;22814;-86
2022/09/10 12:00:13;;;;;;;8.00;1.20;;;;;;;18.32;67.22;98637.15;105364;1285;25222;-80
2022/09/10 12:03:14;;;;;;;6.50;1.20;;;;;;;18.48;67.79;98630.41;105502;1284;25256;-82
2022/09/10 12:06:05;;;;;;;7.60;1.40;;;;;;;18.74;68.09;98630.23;105570;1284;22055;-85
2022/09/10 12:09:57;;;;;;;;;;;;;;;;;;;;;
2022/09/10 12:12:55;;;;;;;6.40;1.20;;;;;;;19.00;67.96;98622.16;105185;1284;22768;-85
2022/09/10 12:15:35;;;;;;;7.20;1.90;;;;;;;19.13;67.87;98616.70;105192;1285;22555;-87
2022/09/10 12:18:52;;;;;;;7.90;1.80;;;;;;;19.23;67.80;98612.86;105245;1284;22573;-86
2022/09/10 12:25:21;;;;;;;7.90;2.10;;;;;;;19.46;68.06;98616.20;101448;1285;5243624;-84
2022/09/10 12:29:12;;;;;;;;;;;;;;;;;;;;;
2022/09/10 12:32:59;;;;;;;;;;;;;;;;;;;;;
2022/09/10 12:36:42;;;;;;;;;;;;;;;;;;;;;
2022/09/10 12:40:31;;;;;;;;;;;;;;;;;;;;;
2022/09/10 12:43:56;;;;;;;;;;;;;;;;;;;;;
2022/09/10 12:46:56;;;;;;;5.90;1.70;;;;;;;19.56;68.36;98602.34;103914;1300;25416;-84
2022/09/10 12:49:50;;;;;;;4.60;1.50;;;;;;;19.72;68.65;98600.14;103950;1300;23923;-84
2022/09/10 12:53:17;;;;;;;8.00;1.70;;;;;;;20.02;68.60;98598.04;103798;1300;22704;-83
2022/09/10 12:56:46;;;;;;;4.00;1.20;;;;;;;20.60;68.69;98594.91;104131;1300;22555;-84
2022/09/10 13:00:21;;;;;;;4.40;1.20;;;;;;;20.83;67.40;98593.27;103298;1306;22570;-85
2022/09/10 13:03:53;;;;;;;5.60;1.10;;;;;;;20.83;67.79;98592.13;103292;1306;22614;-84
2022/09/10 13:07:28;;;;;;;3.90;1.00;;;;;;;20.88;68.00;98581.21;103013;1309;25505;-85
2022/09/10 13:10:31;;;;;;;2.60;1.00;;;;;;;20.85;67.81;98577.41;103358;1306;22580;-82
2022/09/10 13:14:16;;;;;;;;;;;;;;;;;;;;;
2022/09/10 13:17:55;;;;;;;;;;;;;;;;;;;;;
2022/09/10 13:20:57;;;;;;;5.30;1.30;;;;;;;20.76;68.22;98567.62;104442;1291;24275;-85
2022/09/10 13:24:33;;;;;;;5.90;1.70;;;;;;;20.78;68.27;98566.27;104534;1293;22554;-84
2022/09/10 13:27:43;;;;;;;4.70;1.30;;;;;;;20.95;68.35;98554.63;104157;1297;24742;-84
2022/09/10 13:30:31;;;;;;;5.10;1.40;;;;;;;21.22;68.80;98551.88;104184;1300;22564;-85
2022/09/10 13:33:16;;;;;;;7.10;1.50;;;;;;;21.57;68.78;98550.59;104108;1297;22579;-87
2022/09/10 13:36:28;;;;;;;4.80;1.00;;;;;;;21.99;68.33;98549.86;104300;1290;22558;-86
2022/09/10 13:39:37;;;;;;;4.80;1.20;;;;;;;22.15;67.19;98541.16;104885;1290;22509;-87
2022/09/10 13:42:46;;;;;;;5.00;1.10;;;;;;;22.05;67.18;98532.44;104907;1290;25330;-85
2022/09/10 13:45:33;;;;;;;6.20;0.90;;;;;;;22.14;67.60;98530.11;105446;1284;24323;-85
2022/09/10 13:48:25;;;;;;;3.60;0.80;;;;;;;22.06;67.73;98531.81;105360;1284;25302;-84
2022/09/10 13:51:13;;;;;;;2.70;0.70;;;;;;;21.97;67.36;98532.78;105307;1284;23041;-87
2022/09/10 13:53:52;;;;;;;4.80;0.70;;;;;;;21.56;66.21;98528.92;105244;1285;22685;-86
2022/09/10 13:56:32;;;;;;;2.70;0.50;;;;;;;21.22;66.91;98534.87;105696;1284;23949;-85
2022/09/10 13:59:26;;;;;;;5.00;0.70;;;;;;;21.17;67.58;98541.07;105987;1277;22562;-85
2022/09/10 14:02:01;;;;;;;2.10;0.60;;;;;;;21.07;67.40;98541.34;106018;1277;25277;-84
2022/09/10 14:04:37;;;;;;;3.50;0.70;;;;;;;20.96;67.28;98549.39;105866;1278;25448;-84
2022/09/10 14:07:24;;;;;;;1.60;0.50;;;;;;;20.86;67.46;98549.66;105978;1277;22560;-87
2022/09/10 14:10:02;;;;;;;2.50;0.70;;;;;;;20.76;67.58;98549.29;106034;1276;23265;-87
2022/09/10 14:12:34;;;;;;;4.00;0.70;;;;;;;20.75;67.95;98550.19;105980;1278;24293;-85